createdAt,value
2018-12-31T00:02:10.755Z,101.67
2018-12-31T00:04:40.515Z,98.92
2018-12-31T00:07:10.076Z,108.72
2018-12-31T00:27:01.813Z,100.10
2018-12-31T00:29:31.428Z,94.70
2018-12-31T00:32:01.240Z,95.15
2018-12-31T00:34:30.642Z,90.75
2018-12-31T00:37:00.374Z,95.57
2018-12-31T00:39:30.014Z,97.30
2018-12-31T00:41:59.601Z,91.57
2018-12-31T00:44:29.372Z,99.67
2018-12-31T00:46:59.000Z,98.52
2018-12-31T00:49:28.490Z,94.00
2018-12-31T00:51:58.335Z,97.85
2018-12-31T00:54:28.031Z,98.80
2018-12-31T00:56:57.679Z,94.77
2018-12-31T00:59:27.252Z,96.42
2018-12-31T01:01:56.969Z,100.72
2018-12-31T01:04:26.409Z,102.12
2018-12-31T01:06:56.067Z,98.47
2018-12-31T01:09:25.584Z,100.50
2018-12-31T01:11:55.287Z,100.92
2018-12-31T01:14:25.005Z,101.45
2018-12-31T01:16:54.709Z,104.63
2018-12-31T01:19:24.356Z,101.87
2018-12-31T01:39:17.214Z,108.05
2018-12-31T01:41:46.598Z,116.17
2018-12-31T01:44:16.292Z,119.25
2018-12-31T01:46:46.338Z,112.25
2018-12-31T01:49:15.935Z,103.55
2018-12-31T01:51:45.512Z,108.35
2018-12-31T01:54:15.266Z,105.70
2018-12-31T01:56:45.007Z,110.68
2018-12-31T01:59:14.545Z,112.60
2018-12-31T02:01:44.178Z,101.87
2018-12-31T02:04:13.895Z,97.00
2018-12-31T02:06:43.636Z,94.70
2018-12-31T02:26:36.792Z,86.92
2018-12-31T02:29:06.380Z,87.05
2018-12-31T02:31:35.921Z,86.28
2018-12-31T02:34:05.692Z,91.45
2018-12-31T02:53:57.083Z,82.45
2018-12-31T02:56:26.580Z,76.80
2018-12-31T02:58:56.230Z,81.10
2018-12-31T03:01:25.732Z,80.05
2018-12-31T03:03:55.518Z,76.55
2018-12-31T03:06:25.076Z,80.05
2018-12-31T03:08:54.580Z,76.87
2018-12-31T03:11:24.387Z,74.77
2018-12-31T03:13:54.098Z,81.87
2018-12-31T03:16:23.716Z,82.60
2018-12-31T03:18:53.578Z,83.25
2018-12-31T03:21:23.008Z,76.53
2018-12-31T03:23:52.736Z,78.57
2018-12-31T03:26:22.478Z,77.03
2018-12-31T03:28:52.150Z,80.87
2018-12-31T03:31:21.561Z,76.67
2018-12-31T03:33:51.056Z,87.22
2018-12-31T03:36:20.667Z,84.42
2018-12-31T03:38:50.414Z,151.12
2018-12-31T03:41:19.690Z,124.65
2018-12-31T03:43:49.313Z,133.35
2018-12-31T03:46:18.936Z,157.18
2018-12-31T03:48:48.456Z,156.32
2018-12-31T03:51:17.923Z,154.25
2018-12-31T03:53:47.865Z,141.57
2018-12-31T03:56:17.368Z,123.75
2018-12-31T03:58:47.070Z,69.87
2018-12-31T04:01:16.754Z,66.80
2018-12-31T04:03:46.433Z,81.25
2018-12-31T04:06:15.988Z,80.00
2018-12-31T04:08:45.775Z,78.55
2018-12-31T04:11:15.393Z,80.65
2018-12-31T04:13:44.886Z,85.15
2018-12-31T04:16:14.861Z,85.03
2018-12-31T04:18:44.629Z,82.62
2018-12-31T04:21:14.241Z,80.77
2018-12-31T04:23:44.236Z,76.85
2018-12-31T04:26:13.856Z,75.70
2018-12-31T04:28:43.466Z,74.97
2018-12-31T04:31:13.161Z,74.20
2018-12-31T04:33:42.904Z,73.78
2018-12-31T04:36:12.601Z,71.30
2018-12-31T04:38:42.098Z,72.58
2018-12-31T04:41:11.712Z,75.70
2018-12-31T04:43:41.462Z,76.22
2018-12-31T04:46:11.161Z,80.75
2018-12-31T04:48:40.727Z,76.60
2018-12-31T04:51:10.357Z,75.80
2018-12-31T04:53:40.428Z,78.28
2018-12-31T04:56:09.776Z,76.15
2018-12-31T04:58:39.477Z,77.45
2018-12-31T05:01:09.198Z,73.78
2018-12-31T05:03:38.691Z,78.60
2018-12-31T05:06:08.215Z,71.47
2018-12-31T05:08:38.187Z,73.97
2018-12-31T05:11:07.816Z,82.50
2018-12-31T05:13:37.386Z,78.60
2018-12-31T05:16:07.133Z,80.03
2018-12-31T05:18:36.747Z,80.22
2018-12-31T05:21:06.264Z,82.57
2018-12-31T05:23:35.898Z,75.45
2018-12-31T05:26:05.731Z,83.07
2018-12-31T05:28:35.403Z,82.00
2018-12-31T05:31:04.940Z,80.17
2018-12-31T05:33:34.733Z,77.72
2018-12-31T05:36:04.382Z,74.80
2018-12-31T05:38:34.330Z,78.22
2018-12-31T05:41:04.143Z,65.62
2018-12-31T05:43:33.635Z,60.67
2018-12-31T05:46:03.190Z,63.80
2018-12-31T05:48:32.787Z,62.83
2018-12-31T05:51:02.505Z,63.20
2018-12-31T05:53:32.540Z,64.60
2018-12-31T05:56:02.113Z,63.20
2018-12-31T05:58:31.732Z,56.90
2018-12-31T06:01:01.387Z,55.40
2018-12-31T06:03:30.922Z,48.52
2018-12-31T06:06:00.430Z,58.50
2018-12-31T06:08:29.971Z,51.68
2018-12-31T06:10:59.655Z,55.20
2018-12-31T06:13:29.400Z,51.80
2018-12-31T06:15:58.909Z,50.55
2018-12-31T06:35:50.578Z,57.23
2018-12-31T06:38:20.224Z,58.65
2018-12-31T06:40:49.725Z,56.40
2018-12-31T06:43:19.064Z,60.28
2018-12-31T06:45:48.496Z,56.35
2018-12-31T06:48:17.840Z,53.90
2018-12-31T06:50:47.483Z,59.50
2018-12-31T06:53:17.225Z,60.08
2018-12-31T06:55:46.869Z,63.58
2018-12-31T07:15:39.301Z,90.57
2018-12-31T07:18:08.699Z,91.85
2018-12-31T07:20:38.207Z,82.62
2018-12-31T07:23:08.045Z,80.97
2018-12-31T07:25:37.615Z,77.08
2018-12-31T07:28:07.161Z,78.97
2018-12-31T07:30:37.060Z,75.87
2018-12-31T07:33:06.584Z,80.47
2018-12-31T07:35:35.977Z,86.17
2018-12-31T07:55:28.029Z,92.20
2018-12-31T07:57:57.639Z,89.83
2018-12-31T08:00:27.090Z,78.67
2018-12-31T08:02:57.101Z,82.42
2018-12-31T08:05:26.566Z,75.17
2018-12-31T08:07:56.185Z,76.22
2018-12-31T08:10:25.994Z,77.37
2018-12-31T08:12:55.818Z,82.10
2018-12-31T08:15:25.418Z,90.22
2018-12-31T08:35:17.256Z,105.17
2018-12-31T08:37:46.780Z,99.80
2018-12-31T08:57:37.832Z,120.15
2018-12-31T09:00:07.820Z,115.67
2018-12-31T09:02:37.214Z,118.15
2018-12-31T09:05:07.189Z,115.42
2018-12-31T09:07:36.595Z,108.95
2018-12-31T09:10:06.540Z,115.77
2018-12-31T09:12:36.309Z,118.25
2018-12-31T09:15:06.145Z,125.07
2018-12-31T09:17:35.913Z,124.02
2018-12-31T09:20:06.825Z,122.95
2018-12-31T09:22:36.435Z,118.70
2018-12-31T09:25:06.365Z,103.30
2018-12-31T09:44:57.927Z,113.70
2018-12-31T09:47:27.613Z,119.37
2018-12-31T09:49:57.314Z,112.30
2018-12-31T09:52:27.080Z,110.03
2018-12-31T09:54:56.648Z,104.20
2018-12-31T09:57:26.029Z,101.45
2018-12-31T10:17:18.906Z,74.17
2018-12-31T10:19:48.531Z,73.92
2018-12-31T10:22:17.970Z,75.42
2018-12-31T10:42:09.975Z,73.40
2018-12-31T10:44:40.714Z,122.95
2018-12-31T10:47:10.110Z,75.90
2018-12-31T10:49:39.821Z,74.40
2018-12-31T10:52:09.436Z,73.50
2018-12-31T10:54:38.938Z,80.50
2018-12-31T10:57:08.579Z,76.50
2018-12-31T10:59:37.911Z,70.25
2018-12-31T11:02:07.589Z,75.15
2018-12-31T11:04:37.547Z,104.63
2018-12-31T11:07:07.202Z,402.90
2018-12-31T11:09:36.815Z,84.42
2018-12-31T11:12:06.577Z,75.17
2018-12-31T11:14:36.135Z,76.55
2018-12-31T11:34:27.687Z,28.15
2018-12-31T11:36:57.378Z,25.50
2018-12-31T11:39:27.114Z,34.18
2018-12-31T11:59:18.759Z,75.65
2018-12-31T12:01:48.339Z,64.95
2018-12-31T12:04:17.776Z,49.33
2018-12-31T12:06:48.374Z,49.25
2018-12-31T12:09:17.898Z,45.85
2018-12-31T12:11:47.535Z,49.30
2018-12-31T12:14:17.278Z,52.95
2018-12-31T12:16:47.914Z,54.58
2018-12-31T12:19:17.708Z,53.42
2018-12-31T12:21:47.753Z,60.33
2018-12-31T12:24:17.419Z,58.98
2018-12-31T12:26:47.683Z,58.65
2018-12-31T12:29:17.312Z,62.55
2018-12-31T12:31:47.158Z,57.40
2018-12-31T12:34:16.711Z,60.03
2018-12-31T12:36:46.376Z,48.25
2018-12-31T12:39:16.343Z,34.65
2018-12-31T12:41:46.131Z,32.25
2018-12-31T12:44:16.615Z,35.55
2018-12-31T13:04:09.377Z,35.45
2018-12-31T13:44:17.163Z,32.10
2018-12-31T14:04:08.647Z,29.12
2018-12-31T14:06:38.104Z,27.80
2018-12-31T14:09:09.998Z,30.35
2018-12-31T14:29:00.407Z,36.28
2018-12-31T14:31:30.108Z,36.13
2018-12-31T14:33:59.882Z,36.03
2018-12-31T14:36:29.948Z,34.95
2018-12-31T14:38:59.413Z,33.33
2018-12-31T14:41:28.949Z,32.90
2018-12-31T15:01:20.557Z,34.80
2018-12-31T15:21:12.178Z,34.27
2018-12-31T15:23:42.164Z,33.40
2018-12-31T15:26:11.928Z,33.15
2018-12-31T15:28:41.617Z,39.42
2018-12-31T15:31:11.451Z,54.15
2018-12-31T15:51:02.796Z,35.78
2018-12-31T15:59:22.823Z,40.35
2018-12-31T16:01:52.404Z,35.48
2018-12-31T16:04:21.896Z,34.25
2018-12-31T16:06:51.642Z,39.73
2018-12-31T16:09:21.075Z,40.98
2018-12-31T16:11:51.462Z,45.28
2018-12-31T16:14:21.227Z,65.10
2018-12-31T16:16:50.683Z,41.63
2018-12-31T16:19:20.072Z,47.78
2018-12-31T16:21:49.881Z,47.80
2018-12-31T16:24:21.440Z,48.28
2018-12-31T16:26:51.334Z,51.75
2018-12-31T16:29:20.972Z,45.75
2018-12-31T16:32:58.474Z,67.90
2018-12-31T16:35:28.226Z,38.80
2018-12-31T16:37:57.987Z,34.98
2018-12-31T16:40:27.826Z,35.13
2018-12-31T16:42:57.416Z,36.35
2018-12-31T16:45:26.744Z,34.35
2018-12-31T16:47:56.494Z,50.10
2018-12-31T16:50:25.960Z,39.30
2018-12-31T16:52:55.460Z,35.92
2018-12-31T16:55:25.158Z,35.35
2018-12-31T16:57:54.752Z,43.25
2018-12-31T17:00:24.383Z,43.85
2018-12-31T17:02:54.141Z,733.87
2018-12-31T17:05:23.777Z,1999.90
2018-12-31T17:07:53.695Z,251.45
2018-12-31T17:10:23.633Z,159.03
2018-12-31T17:12:53.203Z,1177.78
2018-12-31T17:15:22.741Z,1119.10
2018-12-31T17:17:52.576Z,717.83
2018-12-31T17:20:22.143Z,1960.03
2018-12-31T17:22:52.680Z,481.27
2018-12-31T17:25:23.861Z,575.27
2018-12-31T17:27:53.499Z,199.32
2018-12-31T17:30:22.857Z,778.23
2018-12-31T17:32:52.575Z,1362.95
2018-12-31T17:35:22.160Z,1999.90
2018-12-31T17:37:52.335Z,1999.90
2018-12-31T17:40:21.916Z,903.40
2018-12-31T17:42:51.478Z,1651.10
2018-12-31T17:45:23.346Z,1916.10
2018-12-31T17:47:50.608Z,1999.90
2018-12-31T17:50:19.917Z,1999.90
2018-12-31T17:52:49.426Z,1866.83
2018-12-31T17:55:20.583Z,1999.90
2018-12-31T17:57:50.268Z,1999.90
2018-12-31T18:00:19.740Z,1999.90
2018-12-31T18:02:49.655Z,1999.90
2018-12-31T18:05:19.190Z,1999.90
2018-12-31T18:07:48.808Z,895.43
2018-12-31T18:10:18.322Z,1727.33
2018-12-31T18:12:48.022Z,1154.65
2018-12-31T18:15:17.543Z,1999.90
2018-12-31T18:17:47.383Z,1999.90
2018-12-31T18:20:17.005Z,1674.30
2018-12-31T18:22:46.523Z,1890.63
2018-12-31T18:25:16.354Z,85.27
2018-12-31T18:27:46.141Z,51.27
2018-12-31T18:30:15.774Z,45.93
2018-12-31T18:32:45.486Z,47.03
2018-12-31T18:35:15.005Z,48.08
2018-12-31T18:37:44.610Z,47.88
2018-12-31T18:40:14.491Z,40.80
2018-12-31T18:42:44.359Z,40.83
2018-12-31T18:45:13.991Z,48.50
2018-12-31T18:47:43.897Z,52.58
2018-12-31T18:50:13.789Z,45.17
2018-12-31T18:52:43.403Z,41.92
2018-12-31T18:55:13.264Z,40.15
2018-12-31T18:57:42.822Z,44.40
2018-12-31T19:00:12.515Z,47.23
2018-12-31T19:02:42.451Z,44.20
2018-12-31T19:05:11.928Z,50.85
2018-12-31T19:07:41.331Z,48.87
2018-12-31T19:10:10.980Z,56.15
2018-12-31T19:12:40.669Z,55.78
2018-12-31T19:15:10.130Z,62.53
2018-12-31T19:17:39.887Z,61.48
2018-12-31T19:20:09.426Z,58.00
2018-12-31T19:22:39.117Z,58.87
2018-12-31T19:25:08.716Z,53.08
2018-12-31T19:27:38.315Z,51.70
2018-12-31T19:30:08.482Z,140.57
2018-12-31T19:32:37.868Z,101.75
2018-12-31T19:35:07.323Z,54.30
2018-12-31T19:37:37.898Z,64.25
2018-12-31T19:40:07.525Z,65.37
2018-12-31T19:42:37.169Z,62.62
2018-12-31T19:45:07.061Z,61.18
2018-12-31T19:47:36.708Z,59.42
2018-12-31T19:50:06.467Z,62.27
2018-12-31T19:52:36.220Z,61.88
2018-12-31T19:55:07.031Z,63.70
2018-12-31T19:57:35.745Z,70.55
2018-12-31T20:00:05.969Z,84.37
2018-12-31T20:02:35.585Z,135.97
2018-12-31T20:05:05.404Z,75.47
2018-12-31T20:07:35.247Z,63.42
2018-12-31T20:10:05.073Z,248.82
2018-12-31T20:12:34.555Z,206.95
2018-12-31T20:15:04.366Z,90.17
2018-12-31T20:17:33.951Z,96.28
2018-12-31T20:20:06.539Z,66.53
2018-12-31T20:22:36.201Z,60.78
2018-12-31T20:25:06.030Z,69.82
2018-12-31T20:27:35.743Z,66.15
2018-12-31T20:30:05.572Z,68.87
2018-12-31T20:32:36.327Z,71.28
2018-12-31T20:35:06.224Z,77.25
2018-12-31T20:37:35.840Z,85.87
2018-12-31T20:40:06.072Z,96.20
2018-12-31T20:42:35.833Z,82.72
2018-12-31T20:45:05.448Z,105.58
2018-12-31T20:47:35.657Z,143.20
2018-12-31T20:50:08.186Z,185.95
2018-12-31T20:52:37.669Z,143.55
2018-12-31T20:55:07.224Z,145.60
2018-12-31T20:57:36.982Z,142.10
2018-12-31T21:00:07.470Z,139.32
2018-12-31T21:02:36.835Z,140.47
2018-12-31T21:05:07.156Z,155.90
2018-12-31T21:07:36.659Z,188.22
2018-12-31T21:10:08.660Z,299.07
2018-12-31T21:12:38.160Z,294.85
2018-12-31T21:15:07.802Z,296.77
2018-12-31T21:17:37.507Z,508.57
2018-12-31T21:20:07.666Z,341.77
2018-12-31T21:22:37.314Z,266.38
2018-12-31T21:25:07.288Z,257.87
2018-12-31T21:27:37.004Z,255.35
2018-12-31T21:30:09.314Z,294.07
2018-12-31T21:32:38.707Z,327.60
2018-12-31T21:35:08.533Z,320.82
2018-12-31T21:37:37.981Z,311.48
2018-12-31T21:40:09.564Z,294.45
2018-12-31T21:42:39.527Z,250.55
2018-12-31T21:45:09.268Z,237.68
2018-12-31T21:47:38.888Z,257.27
2018-12-31T21:50:08.528Z,366.63
2018-12-31T21:52:38.013Z,247.80
2018-12-31T21:55:07.585Z,235.53
2018-12-31T21:57:37.425Z,213.72
2018-12-31T22:00:08.046Z,200.28
2018-12-31T22:02:37.947Z,180.40
2018-12-31T22:05:07.501Z,196.93
2018-12-31T22:07:37.096Z,601.58
2018-12-31T22:10:06.919Z,475.57
2018-12-31T22:12:36.594Z,293.90
2018-12-31T22:15:08.209Z,226.30
2018-12-31T22:17:37.785Z,238.77
2018-12-31T22:20:09.016Z,209.10
2018-12-31T22:22:38.760Z,193.40
2018-12-31T22:25:08.456Z,274.82
2018-12-31T22:27:38.954Z,240.25
2018-12-31T22:30:09.822Z,140.25
2018-12-31T22:32:39.342Z,119.42
2018-12-31T22:35:08.830Z,147.53
2018-12-31T22:37:38.365Z,145.80
2018-12-31T22:40:07.821Z,149.87
2018-12-31T22:42:37.409Z,188.60
2018-12-31T22:45:07.234Z,321.87
2018-12-31T22:47:36.975Z,338.48
2018-12-31T22:50:08.855Z,294.95
2018-12-31T22:52:38.384Z,247.75
2018-12-31T22:55:07.741Z,226.22
2018-12-31T22:57:37.520Z,257.98
2018-12-31T23:00:09.311Z,415.70
2018-12-31T23:02:39.371Z,340.75
2018-12-31T23:05:12.108Z,200.43
2018-12-31T23:07:42.720Z,176.27
2018-12-31T23:10:12.280Z,172.05
2018-12-31T23:12:42.022Z,181.12
2018-12-31T23:15:14.996Z,396.02
2018-12-31T23:17:46.413Z,211.68
2018-12-31T23:20:16.245Z,184.80
2018-12-31T23:22:45.930Z,188.10
2018-12-31T23:25:15.639Z,198.68
2018-12-31T23:27:45.945Z,197.37
2018-12-31T23:30:15.476Z,205.57
2018-12-31T23:32:45.092Z,206.00
2018-12-31T23:35:14.949Z,207.07
2018-12-31T23:37:45.220Z,207.00
2018-12-31T23:40:14.946Z,207.98
2018-12-31T23:42:44.663Z,199.65
2018-12-31T23:45:14.389Z,198.53
2018-12-31T23:47:44.172Z,184.28
2018-12-31T23:50:13.968Z,180.50
2018-12-31T23:52:43.684Z,171.82
2018-12-31T23:55:13.157Z,157.95
2018-12-31T23:57:42.858Z,153.75
